Time;durP1;ratioP1;P1;durP2;ratioP2;P2;SDS_P1;SDS_P2;PMS_P1;PMS_P2;Temp;Humidity;BMP_temperature;BMP_pressure;BME280_temperature;BME280_humidity;BME280_pressure;Samples;Min_cycle;Max_cycle;Signal;HPM_P1;HPM_P2
2021/08/04 00:00:24;;;;;;;0.70;0.70;;;;;;;;;;5014724;28;20185;-89
2021/08/04 00:02:52;;;;;;;1.50;0.88;;;;;;;;;;5014394;28;20182;-89
2021/08/04 00:05:19;;;;;;;0.70;0.70;;;;;;;;;;5014347;28;20182;-87
2021/08/04 00:07:49;;;;;;;0.80;0.80;;;;;;;;;;5014539;28;20189;-87
2021/08/04 00:10:19;;;;;;;0.57;0.57;;;;;;;;;;5014259;28;20183;-88
2021/08/04 00:12:54;;;;;;;0.70;0.70;;;;;;;;;;5014100;28;20646;-87
2021/08/04 00:15:25;;;;;;;0.80;0.80;;;;;;;;;;5014452;28;20195;-88
2021/08/04 00:17:54;;;;;;;0.98;0.98;;;;;;;;;;5014327;28;20262;-87
2021/08/04 00:20:24;;;;;;;1.35;1.35;;;;;;;;;;5014280;28;20554;-88
2021/08/04 00:22:54;;;;;;;0.90;0.90;;;;;;;;;;5013995;28;20661;-87
2021/08/04 00:25:28;;;;;;;0.63;0.63;;;;;;;;;;5013834;28;20179;-87
2021/08/04 00:27:55;;;;;;;0.80;0.80;;;;;;;;;;5013671;28;20241;-88
2021/08/04 00:30:25;;;;;;;0.80;0.80;;;;;;;;;;5014269;28;20207;-87
2021/08/04 00:32:54;;;;;;;0.70;0.70;;;;;;;;;;5013705;28;20664;-87
2021/08/04 00:35:23;;;;;;;0.85;0.85;;;;;;;;;;5013479;28;20553;-87
2021/08/04 00:37:53;;;;;;;0.90;0.90;;;;;;;;;;5014058;28;20218;-88
2021/08/04 00:40:22;;;;;;;0.63;0.63;;;;;;;;;;5013895;28;20183;-88
2021/08/04 00:42:57;;;;;;;0.50;0.50;;;;;;;;;;5014243;28;20207;-86
2021/08/04 00:45:25;;;;;;;0.80;0.80;;;;;;;;;;5013451;28;20549;-86
2021/08/04 00:47:54;;;;;;;0.52;0.52;;;;;;;;;;5012965;28;20493;-88
2021/08/04 00:50:22;;;;;;;0.73;0.73;;;;;;;;;;5013828;28;20203;-88
2021/08/04 00:52:52;;;;;;;0.70;0.70;;;;;;;;;;5013257;28;20649;-88
2021/08/04 00:55:20;;;;;;;0.80;0.80;;;;;;;;;;5013626;28;20188;-88
2021/08/04 00:57:48;;;;;;;1.10;1.10;;;;;;;;;;5013594;28;20214;-87
2021/08/04 01:00:16;;;;;;;1.00;1.00;;;;;;;;;;5013662;28;20184;-87
2021/08/04 01:02:51;;;;;;;0.82;0.82;;;;;;;;;;5013360;28;20182;-87
2021/08/04 01:05:26;;;;;;;0.88;0.88;;;;;;;;;;5013097;28;20206;-87
2021/08/04 01:07:59;;;;;;;0.63;0.63;;;;;;;;;;5013468;28;20203;-87
2021/08/04 01:10:29;;;;;;;0.90;0.70;;;;;;;;;;5013420;28;20191;-87
2021/08/04 01:13:02;;;;;;;0.70;0.70;;;;;;;;;;5013643;28;20177;-87
2021/08/04 01:15:35;;;;;;;0.75;0.75;;;;;;;;;;5013211;28;20226;-87
2021/08/04 01:18:04;;;;;;;0.60;0.60;;;;;;;;;;5013283;28;20230;-87
2021/08/04 01:20:33;;;;;;;0.70;0.70;;;;;;;;;;5013019;28;20800;-88
2021/08/04 01:23:18;;;;;;;0.88;0.88;;;;;;;;;;5013313;28;20547;-88
2021/08/04 01:25:55;;;;;;;0.70;0.70;;;;;;;;;;5013114;28;20222;-88
2021/08/04 01:28:28;;;;;;;0.63;0.63;;;;;;;;;;5012772;28;20187;-87
2021/08/04 01:31:04;;;;;;;0.50;0.50;;;;;;;;;;5012895;28;20187;-87
2021/08/04 01:33:33;;;;;;;0.57;0.57;;;;;;;;;;5012576;28;20182;-87
2021/08/04 01:36:02;;;;;;;0.60;0.60;;;;;;;;;;5012750;28;20222;-87
2021/08/04 01:38:31;;;;;;;0.60;0.60;;;;;;;;;;5012902;28;20685;-87
2021/08/04 01:40:59;;;;;;;0.80;0.80;;;;;;;;;;5007415;28;20261;-87
2021/08/04 01:43:30;;;;;;;0.85;0.85;;;;;;;;;;4993178;28;20191;-88
2021/08/04 01:46:00;;;;;;;0.80;0.80;;;;;;;;;;4977049;28;20239;-88
2021/08/04 01:48:32;;;;;;;0.90;0.90;;;;;;;;;;4974093;28;20196;-88
2021/08/04 01:51:03;;;;;;;1.00;1.00;;;;;;;;;;4973870;28;20180;-87
2021/08/04 01:53:32;;;;;;;0.85;0.70;;;;;;;;;;4974203;28;20189;-88
2021/08/04 01:56:01;;;;;;;0.70;0.70;;;;;;;;;;4986517;28;20228;-88
2021/08/04 01:58:31;;;;;;;0.80;0.80;;;;;;;;;;4992798;28;20207;-87
2021/08/04 02:01:00;;;;;;;1.00;1.00;;;;;;;;;;4992784;28;20184;-87
2021/08/04 02:03:28;;;;;;;0.85;0.85;;;;;;;;;;4993100;28;20188;-87
2021/08/04 02:05:56;;;;;;;0.88;0.88;;;;;;;;;;4995742;28;20575;-88
2021/08/04 02:08:29;;;;;;;0.70;0.70;;;;;;;;;;4996648;28;20211;-88
2021/08/04 02:11:07;;;;;;;0.95;0.88;;;;;;;;;;4997135;28;20206;-88
2021/08/04 02:13:45;;;;;;;0.90;0.90;;;;;;;;;;4996861;28;20214;-89
2021/08/04 02:16:26;;;;;;;0.60;0.60;;;;;;;;;;4996955;28;20709;-89
2021/08/04 02:19:03;;;;;;;0.95;0.68;;;;;;;;;;4996513;28;20752;-88
2021/08/04 02:21:33;;;;;;;0.93;0.93;;;;;;;;;;4996662;28;20191;-89
2021/08/04 02:24:03;;;;;;;0.80;0.80;;;;;;;;;;4996818;28;20185;-88
2021/08/04 02:26:31;;;;;;;0.98;0.98;;;;;;;;;;4994301;28;20258;-89
2021/08/04 02:29:03;;;;;;;0.90;0.90;;;;;;;;;;4977123;28;20192;-89
2021/08/04 02:31:33;;;;;;;0.80;0.80;;;;;;;;;;4977516;28;20633;-89
2021/08/04 02:34:06;;;;;;;1.30;1.20;;;;;;;;;;4977024;28;20245;-89
2021/08/04 02:36:43;;;;;;;2.38;1.20;;;;;;;;;;4977044;28;20227;-89
2021/08/04 02:39:11;;;;;;;2.83;1.60;;;;;;;;;;4976713;28;20201;-89
2021/08/04 02:41:40;;;;;;;2.28;1.25;;;;;;;;;;4976560;28;20196;-88
2021/08/04 02:44:09;;;;;;;1.25;1.15;;;;;;;;;;4968135;28;20206;-89
2021/08/04 02:46:37;;;;;;;1.20;1.20;;;;;;;;;;4957267;29;20256;-88
2021/08/04 02:49:06;;;;;;;1.13;1.02;;;;;;;;;;4957469;29;20560;-88
2021/08/04 02:51:41;;;;;;;1.10;1.10;;;;;;;;;;4957224;29;20640;-89
2021/08/04 02:54:12;;;;;;;0.70;0.70;;;;;;;;;;4956948;29;20181;-86
2021/08/04 02:56:40;;;;;;;1.40;1.30;;;;;;;;;;4956812;29;20261;-87
2021/08/04 02:59:08;;;;;;;1.23;1.08;;;;;;;;;;4956519;29;20213;-87
2021/08/04 03:01:36;;;;;;;1.60;1.50;;;;;;;;;;4956641;29;20181;-88
2021/08/04 03:04:05;;;;;;;1.38;1.30;;;;;;;;;;4956514;29;20208;-87
2021/08/04 03:06:32;;;;;;;1.45;1.35;;;;;;;;;;4956542;29;20221;-87
2021/08/04 03:09:00;;;;;;;1.52;1.42;;;;;;;;;;4956219;29;20201;-87
2021/08/04 03:11:28;;;;;;;1.08;1.08;;;;;;;;;;4956453;29;20197;-87
2021/08/04 03:13:56;;;;;;;1.70;1.60;;;;;;;;;;4956802;28;20196;-88
2021/08/04 03:16:25;;;;;;;1.30;1.20;;;;;;;;;;4955484;28;20230;-87
2021/08/04 03:18:53;;;;;;;1.70;1.60;;;;;;;;;;4956578;29;20224;-87
2021/08/04 03:21:21;;;;;;;1.10;1.10;;;;;;;;;;4956624;29;20193;-88
2021/08/04 03:23:48;;;;;;;1.67;1.58;;;;;;;;;;4956293;29;20205;-89
2021/08/04 03:26:16;;;;;;;2.15;2.03;;;;;;;;;;4956224;29;20256;-88
2021/08/04 03:28:44;;;;;;;1.65;1.55;;;;;;;;;;4975572;28;20668;-87
2021/08/04 03:31:11;;;;;;;1.45;1.35;;;;;;;;;;4975390;28;20180;-87
2021/08/04 03:33:40;;;;;;;1.60;1.50;;;;;;;;;;4986409;28;20202;-87
2021/08/04 03:36:07;;;;;;;1.27;1.20;;;;;;;;;;4994531;28;20227;-86
2021/08/04 03:38:35;;;;;;;1.35;1.25;;;;;;;;;;4994887;28;20219;-88
2021/08/04 03:41:02;;;;;;;2.47;1.80;;;;;;;;;;4995054;28;20203;-88
2021/08/04 03:43:30;;;;;;;1.65;1.55;;;;;;;;;;4995026;28;20195;-87
2021/08/04 03:45:57;;;;;;;1.42;1.38;;;;;;;;;;4994315;28;20231;-87
2021/08/04 03:48:25;;;;;;;1.20;1.20;;;;;;;;;;4994350;28;20204;-88
2021/08/04 03:50:54;;;;;;;1.88;1.48;;;;;;;;;;4994699;28;20188;-88
2021/08/04 03:53:21;;;;;;;1.50;1.40;;;;;;;;;;4994493;28;20694;-87
2021/08/04 03:55:48;;;;;;;1.50;1.40;;;;;;;;;;4994172;28;20223;-87
2021/08/04 03:58:16;;;;;;;1.63;1.52;;;;;;;;;;4990056;28;20219;-87
2021/08/04 04:00:45;;;;;;;1.58;1.48;;;;;;;;;;4982898;28;20200;-87
2021/08/04 04:03:13;;;;;;;2.42;2.28;;;;;;;;;;4975078;28;20228;-88
2021/08/04 04:05:41;;;;;;;1.40;1.30;;;;;;;;;;4973955;28;20232;-87
2021/08/04 04:08:09;;;;;;;1.50;1.40;;;;;;;;;;4972222;28;20582;-87
2021/08/04 04:10:37;;;;;;;1.30;1.20;;;;;;;;;;4972881;28;20204;-87
2021/08/04 04:13:04;;;;;;;1.10;1.00;;;;;;;;;;4973477;28;20188;-86
2021/08/04 04:15:32;;;;;;;1.70;1.60;;;;;;;;;;4974061;28;20377;-88
2021/08/04 04:17:59;;;;;;;1.70;1.60;;;;;;;;;;4973950;28;20195;-87
2021/08/04 04:20:26;;;;;;;1.73;1.63;;;;;;;;;;4973810;28;20189;-87
2021/08/04 04:22:54;;;;;;;1.83;1.73;;;;;;;;;;4974267;28;20211;-87
2021/08/04 04:25:23;;;;;;;2.00;1.80;;;;;;;;;;4974526;28;20189;-87
2021/08/04 04:27:50;;;;;;;1.70;1.60;;;;;;;;;;4961704;28;20239;-87
2021/08/04 04:30:18;;;;;;;1.60;1.50;;;;;;;;;;4955202;29;20189;-87
2021/08/04 04:32:46;;;;;;;2.13;1.92;;;;;;;;;;4955126;29;20193;-87
2021/08/04 04:35:14;;;;;;;1.73;1.63;;;;;;;;;;4954349;29;20208;-87
2021/08/04 04:37:41;;;;;;;1.00;1.00;;;;;;;;;;4955084;29;20194;-87
2021/08/04 04:40:10;;;;;;;1.33;1.23;;;;;;;;;;4954292;29;20221;-88
2021/08/04 04:42:38;;;;;;;0.85;0.85;;;;;;;;;;4955078;29;20204;-88
2021/08/04 04:45:07;;;;;;;0.90;0.90;;;;;;;;;;4954955;29;20196;-87
2021/08/04 04:47:35;;;;;;;1.50;1.40;;;;;;;;;;4954960;29;20193;-85
2021/08/04 04:50:03;;;;;;;1.13;1.10;;;;;;;;;;4954418;29;20572;-87
2021/08/04 04:52:30;;;;;;;1.17;1.17;;;;;;;;;;4958600;29;20195;-87
2021/08/04 04:54:58;;;;;;;1.10;1.10;;;;;;;;;;4954947;29;20190;-87
2021/08/04 04:57:25;;;;;;;1.15;1.15;;;;;;;;;;4954650;29;20237;-86
2021/08/04 04:59:55;;;;;;;1.23;1.23;;;;;;;;;;4954544;29;20228;-86
2021/08/04 05:02:22;;;;;;;1.92;1.83;;;;;;;;;;4954497;29;20190;-86
2021/08/04 05:04:50;;;;;;;1.50;1.40;;;;;;;;;;4954715;29;20197;-86
2021/08/04 05:07:17;;;;;;;1.60;1.50;;;;;;;;;;4954576;29;20221;-87
2021/08/04 05:09:45;;;;;;;1.27;1.20;;;;;;;;;;4954911;29;20181;-87
2021/08/04 05:12:12;;;;;;;1.40;1.30;;;;;;;;;;4953784;29;20209;-86
2021/08/04 05:14:40;;;;;;;1.20;1.20;;;;;;;;;;4954566;29;20203;-85
2021/08/04 05:17:12;;;;;;;1.10;1.10;;;;;;;;;;4954427;29;20265;-86
2021/08/04 05:19:39;;;;;;;1.40;1.30;;;;;;;;;;4954097;29;20227;-87
2021/08/04 05:22:07;;;;;;;1.70;1.60;;;;;;;;;;4954232;29;20277;-87
2021/08/04 05:24:35;;;;;;;1.33;1.25;;;;;;;;;;4954484;29;20185;-86
2021/08/04 05:27:02;;;;;;;1.90;1.80;;;;;;;;;;4954312;28;20237;-86
2021/08/04 05:29:30;;;;;;;1.50;1.40;;;;;;;;;;4954322;29;20228;-85
2021/08/04 05:31:57;;;;;;;1.38;1.30;;;;;;;;;;4954436;29;20204;-86
2021/08/04 05:34:26;;;;;;;1.50;1.40;;;;;;;;;;4953956;29;20209;-87
2021/08/04 05:36:53;;;;;;;1.90;1.80;;;;;;;;;;4954314;29;20232;-86
2021/08/04 05:39:21;;;;;;;2.42;2.22;;;;;;;;;;4956681;28;20221;-86
2021/08/04 05:41:48;;;;;;;2.00;1.90;;;;;;;;;;4958034;29;20188;-85
2021/08/04 05:44:16;;;;;;;2.83;2.63;;;;;;;;;;4958209;29;20201;-87
2021/08/04 05:46:44;;;;;;;3.03;2.72;;;;;;;;;;4958226;29;20236;-87
2021/08/04 05:49:12;;;;;;;1.90;1.80;;;;;;;;;;4957977;29;20188;-88
2021/08/04 05:51:40;;;;;;;1.58;1.48;;;;;;;;;;4957989;29;20181;-86
2021/08/04 05:54:08;;;;;;;2.63;2.42;;;;;;;;;;4958035;29;20268;-87
2021/08/04 05:56:37;;;;;;;3.17;2.28;;;;;;;;;;4957939;29;20229;-87
2021/08/04 05:59:05;;;;;;;2.85;2.65;;;;;;;;;;4957945;29;20212;-87
2021/08/04 06:01:32;;;;;;;2.08;1.98;;;;;;;;;;4957988;29;20185;-87
2021/08/04 06:04:01;;;;;;;2.00;1.90;;;;;;;;;;4957958;29;20192;-86
2021/08/04 06:06:28;;;;;;;3.20;1.83;;;;;;;;;;4957836;29;20232;-88
2021/08/04 06:08:58;;;;;;;2.42;2.22;;;;;;;;;;4957818;29;20236;-88
2021/08/04 06:11:26;;;;;;;2.72;2.53;;;;;;;;;;4957799;29;20185;-88
2021/08/04 06:13:53;;;;;;;2.40;2.20;;;;;;;;;;4957519;29;20555;-87
2021/08/04 06:16:22;;;;;;;2.30;2.15;;;;;;;;;;4957541;29;20217;-87
2021/08/04 06:18:49;;;;;;;1.65;1.55;;;;;;;;;;4957585;29;20215;-87
2021/08/04 06:21:16;;;;;;;3.25;2.40;;;;;;;;;;4957107;29;20235;-87
2021/08/04 06:23:47;;;;;;;3.80;3.45;;;;;;;;;;4957648;29;20197;-87
2021/08/04 06:26:17;;;;;;;2.83;2.63;;;;;;;;;;4957427;29;20605;-87
2021/08/04 06:28:45;;;;;;;1.85;1.75;;;;;;;;;;4957894;29;20200;-87
2021/08/04 06:31:13;;;;;;;2.13;1.95;;;;;;;;;;4957253;29;20633;-87
2021/08/04 06:33:41;;;;;;;2.63;2.42;;;;;;;;;;4957264;29;20198;-87
2021/08/04 06:36:08;;;;;;;4.00;3.60;;;;;;;;;;4957269;29;20224;-87
2021/08/04 06:38:36;;;;;;;2.35;2.25;;;;;;;;;;4957335;29;20208;-86
2021/08/04 06:41:03;;;;;;;3.70;3.40;;;;;;;;;;4956980;29;20220;-87
2021/08/04 06:43:32;;;;;;;3.75;3.45;;;;;;;;;;4957151;29;20652;-88
2021/08/04 06:45:59;;;;;;;2.72;2.53;;;;;;;;;;4956923;29;20917;-87
2021/08/04 06:48:27;;;;;;;1.83;1.73;;;;;;;;;;4957241;29;20194;-87
2021/08/04 06:50:54;;;;;;;1.85;1.75;;;;;;;;;;4956983;28;20189;-87
2021/08/04 06:53:22;;;;;;;2.83;2.30;;;;;;;;;;4957466;29;20203;-88
2021/08/04 06:55:49;;;;;;;2.83;2.63;;;;;;;;;;4956544;29;20252;-88
2021/08/04 06:58:16;;;;;;;3.63;2.97;;;;;;;;;;4956854;29;20562;-87
2021/08/04 07:00:46;;;;;;;3.63;2.72;;;;;;;;;;4956624;29;20216;-87
2021/08/04 07:03:13;;;;;;;2.72;2.53;;;;;;;;;;4956593;29;20575;-87
2021/08/04 07:05:41;;;;;;;4.43;3.47;;;;;;;;;;4966156;28;20224;-87
2021/08/04 07:08:09;;;;;;;5.60;4.55;;;;;;;;;;4976022;28;20561;-86
2021/08/04 07:10:36;;;;;;;5.60;5.10;;;;;;;;;;4975941;28;20196;-87
2021/08/04 07:13:04;;;;;;;4.57;4.15;;;;;;;;;;4975968;28;20193;-87
2021/08/04 07:19:17;;;;;;;4.00;3.60;;;;;;;;;;4973975;28;20717;-86
2021/08/04 07:21:47;;;;;;;4.78;4.38;;;;;;;;;;4975717;28;20212;-87
2021/08/04 07:24:15;;;;;;;3.47;3.17;;;;;;;;;;4974984;28;20209;-87
2021/08/04 07:26:44;;;;;;;3.50;3.20;;;;;;;;;;4972496;28;20236;-86
2021/08/04 07:29:12;;;;;;;4.57;3.55;;;;;;;;;;4973040;28;20202;-87
2021/08/04 07:31:40;;;;;;;6.30;5.70;;;;;;;;;;4974769;28;20259;-86
2021/08/04 07:34:08;;;;;;;6.28;5.25;;;;;;;;;;4974432;28;20199;-87
2021/08/04 07:36:38;;;;;;;4.70;4.28;;;;;;;;;;4975116;28;20757;-88
2021/08/04 07:39:06;;;;;;;5.32;4.68;;;;;;;;;;4975365;28;20204;-89
2021/08/04 07:41:34;;;;;;;4.15;3.75;;;;;;;;;;4972623;28;20208;-87
2021/08/04 07:44:01;;;;;;;5.78;5.28;;;;;;;;;;4974876;28;20189;-86
2021/08/04 07:46:28;;;;;;;5.38;4.88;;;;;;;;;;4975086;28;20220;-87
2021/08/04 07:48:57;;;;;;;5.05;4.55;;;;;;;;;;4973046;28;20200;-86
2021/08/04 07:51:24;;;;;;;4.63;4.22;;;;;;;;;;4974259;28;20695;-87
2021/08/04 07:53:53;;;;;;;8.15;5.65;;;;;;;;;;4974658;28;20195;-86
2021/08/04 07:56:23;;;;;;;5.28;4.78;;;;;;;;;;4974666;28;20232;-86
2021/08/04 07:58:50;;;;;;;3.40;3.15;;;;;;;;;;4974209;28;20223;-86
2021/08/04 08:01:18;;;;;;;4.03;3.72;;;;;;;;;;4973915;28;20209;-86
2021/08/04 08:03:46;;;;;;;4.72;4.32;;;;;;;;;;4975601;28;20208;-86
2021/08/04 08:06:14;;;;;;;3.38;2.85;;;;;;;;;;4974610;28;20231;-86
2021/08/04 08:08:41;;;;;;;3.67;3.38;;;;;;;;;;4974276;28;20197;-86
2021/08/04 08:11:10;;;;;;;3.50;3.20;;;;;;;;;;4974147;28;20671;-87
2021/08/04 08:13:37;;;;;;;2.97;2.78;;;;;;;;;;4974275;28;20193;-87
2021/08/04 08:16:05;;;;;;;2.97;2.58;;;;;;;;;;4974007;28;20603;-87
2021/08/04 08:18:35;;;;;;;4.53;4.05;;;;;;;;;;4974134;28;20193;-86
2021/08/04 08:21:02;;;;;;;4.15;3.78;;;;;;;;;;4974254;28;20212;-87
2021/08/04 08:23:30;;;;;;;3.88;3.58;;;;;;;;;;4974313;28;20206;-86
2021/08/04 08:25:58;;;;;;;3.00;2.70;;;;;;;;;;4974966;28;20223;-86
2021/08/04 08:28:27;;;;;;;4.07;3.78;;;;;;;;;;5008925;28;20249;-87
2021/08/04 08:30:55;;;;;;;4.20;3.80;;;;;;;;;;5014684;28;20187;-85
2021/08/04 08:33:23;;;;;;;4.38;3.97;;;;;;;;;;4996512;28;20207;-85
2021/08/04 08:35:50;;;;;;;4.07;3.78;;;;;;;;;;4993967;28;20223;-86
2021/08/04 08:38:17;;;;;;;4.35;3.95;;;;;;;;;;4993200;28;20207;-87
2021/08/04 08:40:47;;;;;;;3.55;3.25;;;;;;;;;;4993475;28;20199;-86
2021/08/04 08:43:16;;;;;;;3.05;2.85;;;;;;;;;;5009464;28;20274;-87
2021/08/04 08:45:53;;;;;;;3.17;2.88;;;;;;;;;;5013266;28;20642;-87
2021/08/04 08:48:20;;;;;;;3.60;3.30;;;;;;;;;;5013415;28;20198;-86
2021/08/04 08:50:51;;;;;;;3.85;3.55;;;;;;;;;;5013302;28;20190;-87
2021/08/04 08:53:21;;;;;;;3.28;3.08;;;;;;;;;;4996268;28;20219;-86
2021/08/04 08:55:55;;;;;;;4.13;3.33;;;;;;;;;;4993610;28;20219;-85
2021/08/04 08:58:23;;;;;;;3.33;3.13;;;;;;;;;;4993267;28;20634;-86
2021/08/04 09:00:54;;;;;;;3.10;2.90;;;;;;;;;;4992681;28;20660;-85
2021/08/04 09:03:21;;;;;;;2.78;2.58;;;;;;;;;;5010025;28;20188;-85
2021/08/04 09:05:53;;;;;;;2.40;2.20;;;;;;;;;;5006021;28;20671;-86
2021/08/04 09:08:26;;;;;;;3.65;3.17;;;;;;;;;;4992713;28;20279;-85
2021/08/04 09:10:53;;;;;;;2.88;2.67;;;;;;;;;;4992929;28;20726;-86
2021/08/04 09:13:32;;;;;;;2.38;2.20;;;;;;;;;;5008731;28;20227;-84
2021/08/04 09:16:06;;;;;;;3.38;3.08;;;;;;;;;;5012374;28;20605;-85
2021/08/04 09:18:47;;;;;;;3.38;3.10;;;;;;;;;;5012836;28;20872;-85
2021/08/04 09:21:16;;;;;;;3.00;2.80;;;;;;;;;;4993119;28;20250;-85
2021/08/04 09:23:48;;;;;;;2.88;2.67;;;;;;;;;;4973430;28;20199;-85
2021/08/04 09:26:17;;;;;;;2.55;2.35;;;;;;;;;;4973281;28;20278;-86
2021/08/04 09:29:01;;;;;;;2.83;2.63;;;;;;;;;;4954111;28;20320;-85
2021/08/04 09:31:52;;;;;;;2.95;2.75;;;;;;;;;;4955757;28;20386;-85
2021/08/04 09:34:35;;;;;;;5.00;2.92;;;;;;;;;;4973124;28;20239;-85
2021/08/04 09:37:05;;;;;;;2.50;2.30;;;;;;;;;;4973111;28;20228;-85
2021/08/04 09:39:33;;;;;;;2.45;2.25;;;;;;;;;;4973616;28;20197;-84
2021/08/04 09:42:02;;;;;;;2.75;2.55;;;;;;;;;;4973527;28;20215;-85
2021/08/04 09:44:30;;;;;;;2.13;1.98;;;;;;;;;;4973019;28;20218;-85
2021/08/04 09:47:10;;;;;;;1.55;1.45;;;;;;;;;;4973433;28;20220;-86
2021/08/04 09:49:39;;;;;;;2.40;2.30;;;;;;;;;;4973438;28;20192;-86
2021/08/04 09:52:10;;;;;;;2.17;2.00;;;;;;;;;;4973027;28;20216;-86
2021/08/04 09:54:39;;;;;;;3.10;2.90;;;;;;;;;;4973838;28;20207;-84
2021/08/04 09:57:07;;;;;;;3.05;2.85;;;;;;;;;;4973947;28;20220;-84
2021/08/04 09:59:35;;;;;;;2.55;2.17;;;;;;;;;;4974120;28;20624;-85
2021/08/04 10:02:04;;;;;;;1.95;1.85;;;;;;;;;;4973463;28;20228;-84
2021/08/04 10:04:34;;;;;;;2.10;2.00;;;;;;;;;;4973708;28;20207;-86
2021/08/04 10:07:11;;;;;;;2.70;2.53;;;;;;;;;;4973744;28;20959;-85
2021/08/04 10:09:38;;;;;;;2.55;2.35;;;;;;;;;;4973664;28;20215;-84
2021/08/04 10:12:13;;;;;;;1.98;1.83;;;;;;;;;;4973630;28;20181;-85
2021/08/04 10:14:41;;;;;;;1.75;1.65;;;;;;;;;;4973264;28;20193;-84
2021/08/04 10:17:10;;;;;;;1.60;1.50;;;;;;;;;;4973166;28;20734;-85
2021/08/04 10:19:39;;;;;;;2.38;2.17;;;;;;;;;;4973440;28;20193;-85
2021/08/04 10:22:07;;;;;;;2.30;2.20;;;;;;;;;;4973083;28;20412;-84
2021/08/04 10:24:36;;;;;;;2.25;2.15;;;;;;;;;;4973878;28;20577;-85
2021/08/04 10:27:04;;;;;;;1.40;1.30;;;;;;;;;;4976456;28;20243;-84
2021/08/04 10:29:32;;;;;;;1.98;1.88;;;;;;;;;;4976895;28;20214;-85
2021/08/04 10:31:59;;;;;;;2.28;2.08;;;;;;;;;;4976783;28;20206;-86
2021/08/04 10:34:28;;;;;;;1.60;1.50;;;;;;;;;;4976462;28;20208;-86
2021/08/04 10:37:02;;;;;;;1.45;1.35;;;;;;;;;;4976627;28;20235;-87
2021/08/04 10:39:30;;;;;;;1.45;1.35;;;;;;;;;;4976511;28;20243;-85
2021/08/04 10:42:04;;;;;;;1.70;1.45;;;;;;;;;;4975986;28;20201;-86
2021/08/04 10:44:32;;;;;;;1.50;1.40;;;;;;;;;;4975719;28;20203;-87
2021/08/04 10:47:02;;;;;;;1.60;1.50;;;;;;;;;;4976090;28;20232;-85
2021/08/04 10:49:35;;;;;;;1.75;1.65;;;;;;;;;;4976825;28;20197;-85
2021/08/04 10:52:10;;;;;;;1.98;1.88;;;;;;;;;;4976723;28;20191;-85
2021/08/04 10:55:11;;;;;;;2.47;2.30;;;;;;;;;;4976718;28;20532;-86
2021/08/04 10:58:18;;;;;;;1.80;1.70;;;;;;;;;;4976143;28;20201;-86
2021/08/04 11:00:46;;;;;;;1.33;1.30;;;;;;;;;;4971648;28;20212;-86
2021/08/04 11:03:47;;;;;;;0.95;0.95;;;;;;;;;;4976327;28;20212;-87
2021/08/04 11:06:15;;;;;;;1.23;1.23;;;;;;;;;;4956498;29;20220;-85
2021/08/04 11:08:48;;;;;;;1.38;1.35;;;;;;;;;;4956475;29;20885;-85
2021/08/04 11:11:54;;;;;;;1.20;1.20;;;;;;;;;;4956283;29;20233;-85
2021/08/04 11:14:38;;;;;;;1.23;1.23;;;;;;;;;;4965348;28;20279;-86
2021/08/04 11:17:07;;;;;;;1.17;1.17;;;;;;;;;;4976073;28;20232;-85
2021/08/04 11:19:45;;;;;;;1.67;1.58;;;;;;;;;;4975962;28;20568;-85
2021/08/04 11:22:22;;;;;;;1.40;1.30;;;;;;;;;;4975306;28;20823;-89
2021/08/04 11:24:54;;;;;;;1.80;1.70;;;;;;;;;;4975819;28;20243;-87
2021/08/04 11:27:24;;;;;;;1.90;1.80;;;;;;;;;;4983496;28;20327;-87
2021/08/04 11:29:54;;;;;;;1.30;1.30;;;;;;;;;;4994945;28;20211;-87
2021/08/04 11:32:25;;;;;;;1.35;1.35;;;;;;;;;;4994405;28;20208;-87
2021/08/04 11:34:53;;;;;;;1.70;1.45;;;;;;;;;;4994666;28;20180;-87
2021/08/04 11:37:22;;;;;;;1.40;1.30;;;;;;;;;;4993554;28;20598;-87
2021/08/04 11:39:59;;;;;;;1.30;1.30;;;;;;;;;;4994533;28;20649;-87
2021/08/04 11:42:29;;;;;;;1.38;1.38;;;;;;;;;;4994526;28;20203;-87
2021/08/04 11:45:05;;;;;;;1.40;1.30;;;;;;;;;;4994563;28;20661;-86
2021/08/04 11:47:34;;;;;;;1.33;1.30;;;;;;;;;;4994578;28;20231;-90
2021/08/04 11:50:06;;;;;;;1.20;1.20;;;;;;;;;;4994479;28;20184;-87
2021/08/04 11:52:35;;;;;;;1.20;1.20;;;;;;;;;;4994446;28;20227;-86
2021/08/04 11:55:10;;;;;;;1.15;1.15;;;;;;;;;;4994308;28;20184;-86
2021/08/04 11:57:42;;;;;;;1.00;1.00;;;;;;;;;;4994620;28;20209;-86
2021/08/04 12:00:18;;;;;;;1.20;1.20;;;;;;;;;;4993987;28;20545;-86
2021/08/04 12:02:47;;;;;;;1.05;1.05;;;;;;;;;;4993936;28;20209;-86
2021/08/04 12:05:16;;;;;;;1.20;1.20;;;;;;;;;;4994232;28;20191;-87
2021/08/04 12:07:44;;;;;;;1.20;1.20;;;;;;;;;;4994096;28;20254;-86
2021/08/04 12:10:21;;;;;;;1.70;1.30;;;;;;;;;;4994363;28;20207;-87
2021/08/04 12:12:50;;;;;;;1.05;1.05;;;;;;;;;;4993884;28;20646;-87
2021/08/04 12:15:23;;;;;;;1.30;1.30;;;;;;;;;;4993996;28;20322;-88
2021/08/04 12:17:58;;;;;;;0.98;0.98;;;;;;;;;;4993940;28;20279;-87
2021/08/04 12:20:29;;;;;;;1.35;1.25;;;;;;;;;;4994060;28;20210;-87
2021/08/04 12:22:59;;;;;;;1.00;1.00;;;;;;;;;;4994100;28;20214;-86
2021/08/04 12:25:30;;;;;;;1.00;1.00;;;;;;;;;;4994092;28;20584;-87
2021/08/04 12:27:59;;;;;;;1.10;1.10;;;;;;;;;;4993440;28;20239;-86
2021/08/04 12:30:30;;;;;;;1.40;1.10;;;;;;;;;;4993978;28;20573;-86
2021/08/04 12:33:03;;;;;;;1.20;1.20;;;;;;;;;;4993408;28;20286;-87
2021/08/04 12:35:40;;;;;;;1.50;1.40;;;;;;;;;;4993800;28;20196;-87
2021/08/04 12:38:15;;;;;;;1.10;1.10;;;;;;;;;;4993689;28;20607;-86
2021/08/04 12:40:47;;;;;;;0.90;0.90;;;;;;;;;;4993743;28;20572;-86
2021/08/04 12:43:16;;;;;;;0.90;0.90;;;;;;;;;;4993440;28;20196;-87
2021/08/04 12:45:49;;;;;;;1.10;1.10;;;;;;;;;;4993448;28;20274;-87
2021/08/04 12:48:22;;;;;;;1.60;1.50;;;;;;;;;;4993031;28;20207;-88
2021/08/04 12:50:56;;;;;;;1.35;1.27;;;;;;;;;;4993624;28;20220;-86
2021/08/04 12:53:27;;;;;;;1.13;1.13;;;;;;;;;;4993095;28;20263;-87
2021/08/04 12:56:01;;;;;;;1.13;1.13;;;;;;;;;;4993360;28;20274;-88
2021/08/04 12:58:46;;;;;;;1.00;1.00;;;;;;;;;;4993277;28;20186;-87
2021/08/04 13:01:20;;;;;;;1.70;1.60;;;;;;;;;;4992406;28;20576;-87
2021/08/04 13:03:50;;;;;;;1.60;1.50;;;;;;;;;;4973800;28;20228;-87
2021/08/04 13:06:18;;;;;;;1.42;1.20;;;;;;;;;;4974034;28;20608;-86
2021/08/04 13:08:47;;;;;;;1.10;1.10;;;;;;;;;;4973890;28;20215;-86
2021/08/04 13:11:29;;;;;;;1.38;1.38;;;;;;;;;;4973903;28;20180;-88
2021/08/04 13:14:02;;;;;;;1.40;1.30;;;;;;;;;;4973884;28;20219;-89
2021/08/04 13:16:31;;;;;;;1.38;1.30;;;;;;;;;;4973719;28;20226;-86
2021/08/04 13:19:00;;;;;;;1.65;1.55;;;;;;;;;;4974062;28;20185;-88
2021/08/04 13:21:28;;;;;;;2.38;1.83;;;;;;;;;;4975053;28;20655;-87
2021/08/04 13:23:56;;;;;;;1.90;1.80;;;;;;;;;;4993160;28;20214;-87
2021/08/04 13:26:36;;;;;;;2.03;1.92;;;;;;;;;;4993118;28;20243;-88
2021/08/04 13:29:04;;;;;;;2.00;1.90;;;;;;;;;;4973595;28;20680;-89
2021/08/04 13:31:33;;;;;;;2.55;2.35;;;;;;;;;;4973407;28;20188;-88
2021/08/04 13:34:06;;;;;;;2.13;2.03;;;;;;;;;;4973786;28;20713;-89
2021/08/04 13:36:37;;;;;;;2.33;2.13;;;;;;;;;;4973726;28;20292;-88
2021/08/04 13:39:04;;;;;;;2.70;2.22;;;;;;;;;;4973718;28;20212;-89
2021/08/04 13:41:32;;;;;;;2.25;2.10;;;;;;;;;;4973627;28;20196;-88
2021/08/04 13:44:02;;;;;;;2.15;2.05;;;;;;;;;;4973673;28;20695;-86
2021/08/04 13:46:29;;;;;;;2.47;2.20;;;;;;;;;;4973484;28;20623;-85
2021/08/04 13:49:02;;;;;;;2.22;2.08;;;;;;;;;;4973446;28;20263;-88
2021/08/04 13:51:31;;;;;;;2.10;2.00;;;;;;;;;;4973250;28;20718;-88
2021/08/04 13:54:03;;;;;;;2.13;1.85;;;;;;;;;;4973686;28;20192;-89
2021/08/04 13:56:31;;;;;;;2.60;2.35;;;;;;;;;;4973754;28;20224;-89
2021/08/04 13:59:02;;;;;;;2.30;2.20;;;;;;;;;;4973381;28;20226;-89
2021/08/04 14:01:30;;;;;;;1.83;1.70;;;;;;;;;;4977183;28;20220;-89
2021/08/04 14:03:57;;;;;;;2.13;1.92;;;;;;;;;;4977408;28;20219;-89
2021/08/04 14:06:26;;;;;;;2.28;1.88;;;;;;;;;;4976953;28;20691;-89
2021/08/04 14:08:54;;;;;;;2.00;1.90;;;;;;;;;;4977403;28;20199;-88
2021/08/04 14:11:23;;;;;;;1.60;1.50;;;;;;;;;;4976935;28;20570;-89
2021/08/04 14:13:52;;;;;;;1.80;1.70;;;;;;;;;;4976943;28;20287;-89
2021/08/04 14:16:24;;;;;;;2.00;1.90;;;;;;;;;;4976596;28;20232;-90
2021/08/04 14:18:53;;;;;;;2.20;2.00;;;;;;;;;;4977090;28;20200;-89
2021/08/04 14:21:21;;;;;;;2.63;2.53;;;;;;;;;;4976982;28;20231;-88
2021/08/04 14:23:50;;;;;;;1.77;1.67;;;;;;;;;;4967911;28;20308;-90
2021/08/04 14:26:19;;;;;;;2.08;1.95;;;;;;;;;;4955904;29;20612;-88
2021/08/04 14:28:59;;;;;;;1.85;1.75;;;;;;;;;;4958320;28;20229;-86
2021/08/04 14:31:30;;;;;;;2.08;1.83;;;;;;;;;;4956914;28;20263;-88
2021/08/04 14:33:58;;;;;;;1.70;1.60;;;;;;;;;;4976654;28;20185;-88
2021/08/04 14:36:26;;;;;;;2.03;1.92;;;;;;;;;;4976678;28;20216;-87
2021/08/04 14:38:54;;;;;;;1.70;1.60;;;;;;;;;;4976246;28;20185;-87
2021/08/04 14:41:22;;;;;;;1.67;1.58;;;;;;;;;;4975862;28;20204;-87
2021/08/04 14:43:50;;;;;;;1.60;1.50;;;;;;;;;;4975511;28;20212;-88
2021/08/04 14:46:19;;;;;;;2.00;1.55;;;;;;;;;;4956786;29;20706;-88
2021/08/04 14:48:49;;;;;;;3.53;1.88;;;;;;;;;;4972141;28;20201;-87
2021/08/04 14:51:17;;;;;;;1.50;1.40;;;;;;;;;;4975911;28;20597;-87
2021/08/04 14:53:45;;;;;;;1.55;1.45;;;;;;;;;;4974900;28;20188;-87
2021/08/04 14:56:14;;;;;;;3.42;2.03;;;;;;;;;;4991419;28;20242;-93
2021/08/04 14:58:42;;;;;;;1.85;1.42;;;;;;;;;;4979640;28;20195;-86
2021/08/04 15:01:10;;;;;;;1.75;1.50;;;;;;;;;;4975273;28;20196;-87
2021/08/04 15:03:38;;;;;;;1.55;1.45;;;;;;;;;;4977070;28;20198;-86